Ashland, Kansas
Current Conditions -  °F | °C
As of 5:52 PM on Saturday 25 Oct 2014 (Local Time) from KDDC Reporting Station
Clear Clear  
Wind Chill: 86°   Ceiling: Unl
Heat Index: 86°   Visibility: 10mi
Dew Point: 42°   Wind: 15mph
Humidity: 21%   Direction: 170°S
Pressure: 29.99"   Gusts: NA
Location:  37.19°N, 99.77°W
Report Text: KDDC 252252Z AUTO 17013KT 10SM CLR 30/06 A2999 RMK AO2 SLP132 T03000056
Loading
Personal Weather Stations






























Interactive Weather Map
Tropical Storm Tracking
New forecast layout! Learn more

10-Day Weather Forecast

Advertisements
Track Severe Weather on mobile